Time;durP1;ratioP1;P1;durP2;ratioP2;P2;SDS_P1;SDS_P2;PMS_P1;PMS_P2;Temp;Humidity;BMP_temperature;BMP_pressure;BME280_temperature;BME280_humidity;BME280_pressure;Samples;Min_cycle;Max_cycle;Signal;HPM_P1;HPM_P2
2021/04/22 00:01:32;;;;;;;7.95;6.13;;;8.70;68.00;;;;;;4957149;28;20042;-75
2021/04/22 00:03:58;;;;;;;12.95;6.05;;;8.60;68.10;;;;;;4956599;28;20022;-75
2021/04/22 00:06:25;;;;;;;7.85;6.28;;;8.50;68.60;;;;;;4957324;28;20030;-75
2021/04/22 00:08:51;;;;;;;9.30;6.22;;;8.40;68.80;;;;;;4960273;28;20031;-75
2021/04/22 00:11:16;;;;;;;10.45;6.45;;;8.50;68.80;;;;;;4958274;28;20432;-76
2021/04/22 00:13:42;;;;;;;9.40;6.57;;;8.60;68.50;;;;;;4963601;28;20026;-75
2021/04/22 00:16:07;;;;;;;11.98;6.82;;;8.70;68.30;;;;;;4959907;28;20439;-76
2021/04/22 00:18:33;;;;;;;9.82;6.68;;;8.80;68.00;;;;;;4979633;28;20033;-75
2021/04/22 00:20:58;;;;;;;8.63;6.10;;;8.80;67.80;;;;;;4977266;28;20039;-75
2021/04/22 00:23:24;;;;;;;9.80;6.22;;;8.90;67.90;;;;;;4959715;28;20019;-75
2021/04/22 00:25:50;;;;;;;11.27;7.20;;;8.90;67.90;;;;;;4976964;28;20027;-75
2021/04/22 00:28:16;;;;;;;9.20;6.38;;;8.90;68.30;;;;;;4976852;28;20034;-75
2021/04/22 00:30:44;;;;;;;8.93;6.55;;;8.90;68.50;;;;;;4959350;28;20029;-75
2021/04/22 00:33:16;;;;;;;11.02;6.75;;;8.90;68.70;;;;;;4976853;28;20491;-75
2021/04/22 00:35:42;;;;;;;9.80;7.00;;;8.80;69.00;;;;;;4959599;28;20023;-75
2021/04/22 00:38:08;;;;;;;7.53;5.40;;;8.80;69.20;;;;;;4959346;28;20026;-75
2021/04/22 00:40:35;;;;;;;9.27;5.85;;;8.90;69.40;;;;;;4959288;28;20510;-76
2021/04/22 00:43:03;;;;;;;7.28;5.45;;;8.90;69.30;;;;;;4959301;28;20018;-75
2021/04/22 00:45:29;;;;;;;11.75;6.15;;;8.80;69.20;;;;;;4959250;28;20181;-76
2021/04/22 00:47:56;;;;;;;10.32;6.22;;;8.80;69.50;;;;;;4976713;28;20523;-76
2021/04/22 00:50:27;;;;;;;8.80;6.50;;;8.70;69.70;;;;;;4959030;28;20058;-75
2021/04/22 00:52:54;;;;;;;10.63;6.50;;;8.70;69.90;;;;;;4959282;28;20478;-75
2021/04/22 00:55:20;;;;;;;9.38;6.20;;;8.70;70.00;;;;;;4958822;28;20051;-75
2021/04/22 00:57:46;;;;;;;10.40;6.30;;;8.70;70.00;;;;;;4959517;28;20062;-75
2021/04/22 01:00:14;;;;;;;10.20;7.32;;;8.80;70.30;;;;;;4959050;28;20034;-75
2021/04/22 01:02:40;;;;;;;8.73;6.75;;;8.70;70.20;;;;;;4958678;28;20059;-75
2021/04/22 01:05:12;;;;;;;10.82;8.13;;;8.70;70.30;;;;;;4958916;28;20054;-75
2021/04/22 01:07:43;;;;;;;12.23;7.13;;;8.60;70.80;;;;;;4976286;28;20019;-75
2021/04/22 01:10:11;;;;;;;11.45;8.50;;;8.50;71.30;;;;;;4958913;28;20082;-75
2021/04/22 01:12:36;;;;;;;12.32;8.10;;;8.40;71.90;;;;;;4958715;28;20030;-75
2021/04/22 01:15:06;;;;;;;10.27;7.30;;;8.40;72.00;;;;;;4958790;28;20035;-75
2021/04/22 01:17:36;;;;;;;10.40;7.40;;;8.40;72.10;;;;;;4976298;28;20027;-75
2021/04/22 01:20:12;;;;;;;9.20;6.70;;;8.40;72.00;;;;;;4975867;28;20117;-76
2021/04/22 01:22:38;;;;;;;10.45;6.65;;;8.50;71.80;;;;;;4958706;28;20031;-75
2021/04/22 01:25:07;;;;;;;11.98;6.80;;;8.40;71.60;;;;;;4958415;28;20023;-75
2021/04/22 01:27:34;;;;;;;8.73;6.32;;;8.50;71.60;;;;;;4975158;28;20057;-75
2021/04/22 01:29:59;;;;;;;9.18;6.72;;;8.50;71.60;;;;;;4942361;28;20041;-75
2021/04/22 01:32:25;;;;;;;12.80;7.07;;;8.50;71.60;;;;;;4958454;28;20019;-75
2021/04/22 01:34:51;;;;;;;8.63;6.68;;;8.40;71.30;;;;;;4975607;28;20031;-76
2021/04/22 01:37:16;;;;;;;8.80;6.20;;;8.30;71.30;;;;;;4958411;28;20760;-74
2021/04/22 01:39:42;;;;;;;8.80;6.65;;;8.20;71.40;;;;;;4975460;28;20491;-73
2021/04/22 01:42:07;;;;;;;10.13;6.30;;;8.20;71.70;;;;;;4975538;28;20065;-73
2021/04/22 01:44:33;;;;;;;8.98;6.88;;;8.20;71.90;;;;;;4958245;28;20023;-73
2021/04/22 01:46:59;;;;;;;12.25;7.22;;;8.20;71.90;;;;;;4957908;28;20022;-74
2021/04/22 01:49:24;;;;;;;13.45;7.55;;;8.20;72.60;;;;;;4975444;28;20029;-74
2021/04/22 01:51:50;;;;;;;8.45;6.18;;;8.20;71.80;;;;;;4958134;28;20015;-74
2021/04/22 01:54:15;;;;;;;9.88;6.25;;;8.20;71.60;;;;;;4957950;28;20039;-74
2021/04/22 01:56:41;;;;;;;7.05;5.60;;;8.10;71.40;;;;;;4957836;28;20054;-74
2021/04/22 01:59:06;;;;;;;7.38;5.95;;;8.10;71.10;;;;;;4957860;28;20035;-74
2021/04/22 02:01:32;;;;;;;11.00;6.22;;;8.10;70.70;;;;;;4975178;28;20093;-74
2021/04/22 02:03:57;;;;;;;10.45;6.25;;;7.90;70.60;;;;;;4957913;28;20023;-74
2021/04/22 02:06:23;;;;;;;10.48;7.15;;;7.80;70.80;;;;;;4975046;28;20063;-74
2021/04/22 02:08:48;;;;;;;8.80;6.88;;;7.70;71.50;;;;;;4957681;28;20029;-74
2021/04/22 02:11:14;;;;;;;10.30;6.80;;;7.70;71.70;;;;;;4957737;28;20034;-74
2021/04/22 02:13:40;;;;;;;11.63;6.65;;;7.60;71.90;;;;;;4975096;28;20023;-74
2021/04/22 02:16:06;;;;;;;7.57;5.95;;;7.60;72.10;;;;;;4957635;28;20047;-74
2021/04/22 02:18:31;;;;;;;9.30;5.95;;;7.60;72.10;;;;;;4957649;28;20110;-73
2021/04/22 02:20:57;;;;;;;9.07;6.32;;;7.60;72.00;;;;;;4957428;28;20035;-74
2021/04/22 02:23:25;;;;;;;9.50;5.95;;;7.50;71.80;;;;;;4957415;28;20063;-74
2021/04/22 02:25:50;;;;;;;13.68;5.85;;;7.50;71.60;;;;;;4974709;28;20030;-74
2021/04/22 02:28:17;;;;;;;9.07;6.28;;;7.50;71.70;;;;;;4957359;28;20436;-75
2021/04/22 02:30:44;;;;;;;11.20;6.65;;;7.50;71.70;;;;;;4974723;28;20034;-74
2021/04/22 02:33:13;;;;;;;12.73;9.07;;;7.50;73.10;;;;;;4957138;28;20031;-75
2021/04/22 02:35:41;;;;;;;14.50;9.82;;;7.30;73.40;;;;;;4957371;28;20062;-73
2021/04/22 02:38:09;;;;;;;13.50;9.05;;;7.20;74.50;;;;;;4974550;28;20093;-73
2021/04/22 02:40:36;;;;;;;13.65;9.10;;;7.10;74.90;;;;;;4957082;28;20038;-74
2021/04/22 02:43:06;;;;;;;14.52;9.65;;;7.10;75.10;;;;;;4957304;28;20439;-72
2021/04/22 02:45:34;;;;;;;15.55;8.63;;;7.10;75.00;;;;;;4974548;28;20019;-73
2021/04/22 02:48:01;;;;;;;12.02;7.68;;;7.10;74.90;;;;;;4957074;28;20472;-75
2021/04/22 02:50:29;;;;;;;13.45;8.27;;;7.00;74.90;;;;;;4956926;28;20632;-75
2021/04/22 02:52:55;;;;;;;12.00;8.15;;;6.90;75.30;;;;;;4957205;28;20081;-74
2021/04/22 02:55:21;;;;;;;11.43;8.23;;;6.90;75.40;;;;;;4974182;28;20058;-75
2021/04/22 02:57:47;;;;;;;11.32;7.47;;;7.00;75.30;;;;;;4957041;28;20030;-74
2021/04/22 03:00:16;;;;;;;10.57;7.03;;;6.90;74.90;;;;;;4974180;28;20065;-75
2021/04/22 03:02:42;;;;;;;11.27;6.53;;;7.00;74.50;;;;;;4974414;28;20102;-75
2021/04/22 03:05:08;;;;;;;9.80;7.00;;;6.90;74.50;;;;;;4974145;28;20062;-75
2021/04/22 03:07:34;;;;;;;10.05;6.88;;;6.90;74.80;;;;;;4957017;28;20054;-75
2021/04/22 03:09:59;;;;;;;12.23;7.38;;;7.00;75.10;;;;;;4956801;28;20480;-75
2021/04/22 03:12:25;;;;;;;9.15;6.20;;;6.90;75.10;;;;;;4974245;28;20058;-75
2021/04/22 03:14:51;;;;;;;7.88;6.07;;;6.90;75.10;;;;;;4956486;28;20132;-75
2021/04/22 03:17:17;;;;;;;10.95;6.90;;;6.90;75.00;;;;;;4956702;28;20031;-75
2021/04/22 03:19:42;;;;;;;10.55;6.82;;;6.90;75.00;;;;;;4956693;28;20089;-74
2021/04/22 03:22:08;;;;;;;9.40;7.07;;;6.90;74.90;;;;;;4956760;28;20065;-75
2021/04/22 03:24:34;;;;;;;10.57;6.72;;;6.80;75.00;;;;;;4956818;28;20380;-74
2021/04/22 03:27:00;;;;;;;10.07;6.32;;;6.70;75.40;;;;;;4956673;28;20030;-75
2021/04/22 03:29:25;;;;;;;9.93;7.63;;;6.70;75.00;;;;;;4974029;28;20051;-75
2021/04/22 03:31:51;;;;;;;10.20;7.53;;;6.70;74.90;;;;;;4956774;28;20046;-74
2021/04/22 03:34:16;;;;;;;12.52;7.57;;;6.60;74.70;;;;;;4956698;28;20117;-75
2021/04/22 03:36:43;;;;;;;12.82;7.95;;;6.60;74.70;;;;;;4956697;28;20507;-75
2021/04/22 03:39:09;;;;;;;9.50;6.45;;;6.60;74.70;;;;;;4956537;28;20023;-75
2021/04/22 03:41:34;;;;;;;10.70;7.22;;;6.60;74.60;;;;;;4956575;28;20039;-74
2021/04/22 03:44:00;;;;;;;12.95;7.35;;;6.70;74.30;;;;;;4956457;28;20029;-75
2021/04/22 03:46:26;;;;;;;13.93;7.97;;;6.70;74.00;;;;;;4956456;28;20058;-73
2021/04/22 03:48:51;;;;;;;12.32;7.13;;;6.70;73.90;;;;;;4973825;28;20023;-75
2021/04/22 03:51:17;;;;;;;9.68;6.72;;;6.70;73.90;;;;;;4976665;28;20026;-75
2021/04/22 03:53:42;;;;;;;9.07;6.68;;;6.70;73.90;;;;;;4960537;28;20033;-75
2021/04/22 03:56:08;;;;;;;10.10;6.82;;;6.60;73.90;;;;;;4956791;29;20054;-75
2021/04/22 03:58:34;;;;;;;8.80;6.45;;;6.60;74.00;;;;;;4940896;29;20038;-75
2021/04/22 04:01:00;;;;;;;10.38;7.30;;;6.60;74.00;;;;;;4957329;29;20074;-75
2021/04/22 04:03:26;;;;;;;12.32;7.80;;;6.50;74.30;;;;;;4958049;28;20027;-75
2021/04/22 04:05:52;;;;;;;11.85;7.28;;;6.50;74.40;;;;;;4956706;29;20484;-75
2021/04/22 04:08:18;;;;;;;14.15;7.30;;;6.50;74.70;;;;;;4956683;29;20035;-75
2021/04/22 04:10:43;;;;;;;12.68;7.80;;;6.40;74.80;;;;;;4956953;29;20027;-75
2021/04/22 04:13:09;;;;;;;13.32;8.23;;;6.40;75.00;;;;;;4957786;29;20023;-75
2021/04/22 04:15:34;;;;;;;11.27;7.70;;;6.40;75.50;;;;;;4956709;29;20038;-75
2021/04/22 04:18:01;;;;;;;11.23;7.22;;;6.30;75.70;;;;;;4957854;29;20031;-75
2021/04/22 04:20:26;;;;;;;12.18;8.10;;;6.30;75.80;;;;;;4957685;29;20171;-75
2021/04/22 04:22:52;;;;;;;10.27;7.30;;;6.30;75.80;;;;;;4956272;29;20114;-75
2021/04/22 04:25:18;;;;;;;13.52;9.43;;;6.30;75.70;;;;;;4957560;29;20023;-75
2021/04/22 04:27:44;;;;;;;17.67;10.88;;;6.30;75.80;;;;;;4956532;29;20023;-75
2021/04/22 04:30:11;;;;;;;17.35;11.40;;;6.40;75.70;;;;;;4957339;28;20113;-75
2021/04/22 04:32:38;;;;;;;14.95;10.40;;;6.40;75.60;;;;;;4956303;29;20031;-75
2021/04/22 04:35:05;;;;;;;14.95;10.40;;;6.40;75.40;;;;;;4956204;29;20074;-75
2021/04/22 04:37:30;;;;;;;14.40;9.48;;;6.40;75.50;;;;;;4956210;29;20031;-75
2021/04/22 04:39:56;;;;;;;19.58;10.07;;;6.40;75.60;;;;;;4956049;29;20281;-75
2021/04/22 04:42:22;;;;;;;13.25;8.88;;;6.50;75.50;;;;;;4955954;29;20035;-75
2021/04/22 04:44:47;;;;;;;15.05;9.93;;;6.60;75.40;;;;;;4956144;29;20051;-75
2021/04/22 04:47:13;;;;;;;18.45;11.13;;;6.60;75.00;;;;;;4955776;29;20535;-75
2021/04/22 04:49:39;;;;;;;18.02;9.90;;;6.70;74.70;;;;;;4956182;29;20035;-74
2021/04/22 04:52:05;;;;;;;17.58;10.93;;;6.80;74.40;;;;;;4956075;29;20027;-75
2021/04/22 04:54:31;;;;;;;19.42;11.60;;;6.80;74.10;;;;;;4956108;29;20484;-74
2021/04/22 04:56:57;;;;;;;18.48;10.93;;;6.90;74.00;;;;;;4955765;29;20051;-75
2021/04/22 04:59:23;;;;;;;17.60;9.68;;;6.90;73.80;;;;;;4956444;29;20027;-74
2021/04/22 05:01:49;;;;;;;14.57;9.68;;;7.00;73.50;;;;;;4955921;28;20081;-74
2021/04/22 05:04:14;;;;;;;12.70;8.48;;;7.00;73.00;;;;;;4960308;29;20064;-74
2021/04/22 05:06:40;;;;;;;20.17;11.38;;;7.00;72.80;;;;;;4962496;29;20396;-76
2021/04/22 05:09:06;;;;;;;18.17;11.07;;;7.00;72.70;;;;;;4961134;29;20527;-76
2021/04/22 05:11:31;;;;;;;17.23;11.30;;;6.80;72.50;;;;;;4958588;29;20031;-75
2021/04/22 05:13:57;;;;;;;15.40;10.48;;;6.70;73.10;;;;;;4956798;29;20058;-75
2021/04/22 05:16:23;;;;;;;16.10;10.40;;;6.60;73.40;;;;;;4957352;29;20019;-75
2021/04/22 05:18:48;;;;;;;15.10;9.43;;;6.70;73.50;;;;;;4956635;29;20479;-75
2021/04/22 05:21:14;;;;;;;13.70;9.45;;;6.80;73.30;;;;;;4956367;29;20496;-75
2021/04/22 05:23:39;;;;;;;19.58;11.15;;;6.90;73.30;;;;;;4955214;29;20027;-75
2021/04/22 05:26:05;;;;;;;13.85;9.35;;;6.90;72.90;;;;;;4956349;29;20046;-75
2021/04/22 05:28:30;;;;;;;18.02;10.13;;;7.00;72.80;;;;;;4956202;29;20019;-77
2021/04/22 05:30:56;;;;;;;17.52;10.50;;;7.10;72.80;;;;;;4956133;29;20555;-75
2021/04/22 05:33:22;;;;;;;18.35;10.73;;;7.20;72.40;;;;;;4956234;29;20066;-76
2021/04/22 05:35:47;;;;;;;16.35;10.23;;;7.30;72.20;;;;;;4956288;29;20027;-75
2021/04/22 05:38:13;;;;;;;18.42;11.07;;;7.40;71.70;;;;;;4956021;29;20353;-75
2021/04/22 05:40:39;;;;;;;15.68;9.55;;;7.30;71.50;;;;;;4956074;29;20031;-75
2021/04/22 05:43:08;;;;;;;14.75;9.60;;;7.30;71.50;;;;;;4955993;29;20392;-75
2021/04/22 05:45:35;;;;;;;21.63;10.07;;;7.40;71.50;;;;;;4956132;29;20034;-76
2021/04/22 05:48:01;;;;;;;16.77;10.32;;;7.40;71.50;;;;;;4956017;29;20433;-76
2021/04/22 05:50:27;;;;;;;17.05;10.23;;;7.40;71.20;;;;;;4955888;29;20027;-73
2021/04/22 05:52:52;;;;;;;18.30;10.43;;;7.50;71.20;;;;;;4956018;29;20090;-74
2021/04/22 05:55:18;;;;;;;18.67;10.38;;;7.60;71.00;;;;;;4961093;28;20495;-74
2021/04/22 05:57:44;;;;;;;17.80;11.10;;;7.60;70.80;;;;;;4975130;28;20031;-76
2021/04/22 06:00:13;;;;;;;14.07;9.32;;;7.60;70.40;;;;;;4975009;28;20396;-76
2021/04/22 06:02:39;;;;;;;18.90;10.57;;;7.70;70.40;;;;;;4957365;28;20022;-74
2021/04/22 06:05:06;;;;;;;21.00;10.80;;;7.70;70.30;;;;;;4974935;28;20098;-76
2021/04/22 06:07:32;;;;;;;20.38;11.00;;;7.80;70.50;;;;;;4974749;28;20030;-75
2021/04/22 06:09:57;;;;;;;18.55;9.90;;;7.90;70.40;;;;;;4974840;28;20030;-76
2021/04/22 06:12:23;;;;;;;16.48;10.05;;;8.00;70.20;;;;;;4974576;28;20113;-75
2021/04/22 06:14:48;;;;;;;17.02;10.13;;;8.10;70.00;;;;;;4974906;28;20026;-74
2021/04/22 06:17:15;;;;;;;14.15;9.27;;;8.20;69.70;;;;;;4974720;28;20035;-74
2021/04/22 06:19:40;;;;;;;15.90;10.95;;;8.30;69.50;;;;;;4974740;28;20034;-75
2021/04/22 06:22:06;;;;;;;16.50;10.18;;;8.40;68.70;;;;;;4974778;28;20101;-75
2021/04/22 06:24:31;;;;;;;24.88;12.50;;;8.50;68.60;;;;;;4974509;28;20023;-74
2021/04/22 06:26:57;;;;;;;23.30;12.45;;;8.50;68.40;;;;;;4974482;28;20035;-75
2021/04/22 06:29:23;;;;;;;19.75;12.60;;;8.50;68.90;;;;;;4974702;28;20030;-76
2021/04/22 06:31:48;;;;;;;25.63;14.55;;;8.50;69.10;;;;;;4974626;28;20030;-73
2021/04/22 06:34:15;;;;;;;21.80;15.50;;;8.40;70.50;;;;;;4974423;28;20039;-74
2021/04/22 06:36:42;;;;;;;22.17;15.00;;;8.40;71.20;;;;;;4974406;28;20026;-74
2021/04/22 06:39:08;;;;;;;24.63;15.75;;;8.40;71.80;;;;;;4974432;28;20042;-74
2021/04/22 06:41:34;;;;;;;25.85;18.50;;;8.50;71.90;;;;;;4974333;28;20038;-74
2021/04/22 06:44:00;;;;;;;26.27;17.75;;;8.60;71.50;;;;;;4974379;28;20054;-76
2021/04/22 06:46:25;;;;;;;33.20;22.65;;;8.70;71.40;;;;;;4974217;28;20114;-74
2021/04/22 06:48:52;;;;;;;30.25;19.65;;;8.70;71.90;;;;;;4974399;28;20101;-75
2021/04/22 06:51:17;;;;;;;29.42;20.77;;;8.70;72.50;;;;;;4974102;28;20034;-75
2021/04/22 06:53:43;;;;;;;30.98;19.92;;;8.70;73.00;;;;;;4974106;28;20027;-75
2021/04/22 06:56:08;;;;;;;36.15;22.75;;;8.60;73.40;;;;;;4973894;28;20581;-75
2021/04/22 06:58:34;;;;;;;36.05;23.65;;;8.60;73.60;;;;;;4974048;28;20491;-73
2021/04/22 07:01:00;;;;;;;32.97;22.88;;;8.80;73.60;;;;;;4974031;28;20041;-75
2021/04/22 07:03:26;;;;;;;32.20;20.67;;;8.90;73.20;;;;;;4956807;28;20380;-77
2021/04/22 07:05:52;;;;;;;31.20;21.25;;;9.10;72.70;;;;;;4974024;28;20031;-77
2021/04/22 07:08:17;;;;;;;27.05;19.10;;;9.20;72.10;;;;;;4974260;28;20104;-77
2021/04/22 07:10:43;;;;;;;31.45;23.10;;;9.40;72.40;;;;;;4974259;28;20428;-75
2021/04/22 07:13:10;;;;;;;28.67;19.67;;;9.60;72.00;;;;;;4973639;28;20035;-76
2021/04/22 07:15:36;;;;;;;30.25;20.27;;;9.90;71.40;;;;;;4973423;28;20101;-77
2021/04/22 07:18:02;;;;;;;30.98;19.67;;;10.00;70.10;;;;;;4973533;28;20369;-76
2021/04/22 07:20:28;;;;;;;31.17;19.50;;;10.10;69.70;;;;;;4973834;28;20035;-76
2021/04/22 07:22:55;;;;;;;35.25;21.02;;;10.20;69.30;;;;;;4973946;28;20026;-76
2021/04/22 07:25:22;;;;;;;34.17;20.90;;;10.30;68.40;;;;;;4975359;28;20041;-76
2021/04/22 07:27:48;;;;;;;25.83;18.92;;;10.40;68.10;;;;;;4978076;28;20555;-76
2021/04/22 07:30:14;;;;;;;32.05;20.35;;;10.50;67.40;;;;;;4977827;28;20034;-76
2021/04/22 07:32:40;;;;;;;28.10;20.20;;;10.50;66.80;;;;;;4977866;28;20058;-76
2021/04/22 07:35:08;;;;;;;32.53;20.48;;;10.70;66.60;;;;;;4977614;28;20533;-77
2021/04/22 07:37:34;;;;;;;28.38;20.23;;;10.70;66.30;;;;;;4977577;28;20170;-76
2021/04/22 07:40:00;;;;;;;34.47;23.25;;;10.80;66.40;;;;;;4977125;28;20532;-75
2021/04/22 07:42:26;;;;;;;37.97;22.75;;;10.60;66.50;;;;;;4977504;28;20033;-76
2021/04/22 07:44:51;;;;;;;34.45;23.92;;;10.80;66.80;;;;;;4977654;28;20472;-77
2021/04/22 07:47:17;;;;;;;33.45;23.05;;;10.80;66.90;;;;;;4977488;28;20030;-76
2021/04/22 07:49:44;;;;;;;29.60;21.33;;;10.90;67.00;;;;;;4977420;28;20047;-76
2021/04/22 07:52:10;;;;;;;32.83;22.35;;;11.10;66.60;;;;;;4977486;28;20034;-77
2021/04/22 07:54:37;;;;;;;34.53;23.58;;;10.90;66.50;;;;;;4977196;28;20030;-76
2021/04/22 07:57:04;;;;;;;34.08;23.58;;;10.90;66.90;;;;;;4977153;28;20078;-76
2021/04/22 07:59:30;;;;;;;29.13;21.05;;;11.00;67.00;;;;;;4977287;28;20427;-77
2021/04/22 08:01:55;;;;;;;28.58;20.17;;;11.20;66.70;;;;;;4977175;28;20077;-77
2021/04/22 08:04:21;;;;;;;28.95;20.88;;;11.40;66.30;;;;;;4976851;28;20088;-74
2021/04/22 08:06:46;;;;;;;29.85;21.73;;;11.60;65.60;;;;;;4977063;28;20391;-75
2021/04/22 08:09:12;;;;;;;30.92;19.48;;;11.80;65.30;;;;;;4977071;28;20034;-74
2021/04/22 08:11:37;;;;;;;29.75;18.65;;;12.10;65.40;;;;;;4977269;28;20027;-74
2021/04/22 08:14:03;;;;;;;30.85;20.50;;;12.30;65.00;;;;;;4976867;28;20035;-73
2021/04/22 08:16:29;;;;;;;32.75;22.38;;;12.50;63.40;;;;;;4977059;28;20019;-74
2021/04/22 08:18:56;;;;;;;30.52;21.40;;;12.60;62.60;;;;;;4976619;28;20176;-74
2021/04/22 08:21:23;;;;;;;25.95;18.20;;;12.90;62.40;;;;;;4959230;28;20083;-74
2021/04/22 08:23:49;;;;;;;30.33;21.73;;;13.10;61.20;;;;;;4976766;28;20030;-73
2021/04/22 08:26:18;;;;;;;30.65;21.40;;;13.20;60.50;;;;;;4976689;28;20437;-76
2021/04/22 08:28:44;;;;;;;35.03;22.38;;;13.40;59.90;;;;;;4976818;28;20472;-74
2021/04/22 08:31:13;;;;;;;34.97;23.15;;;13.60;58.70;;;;;;4976825;28;20030;-74
2021/04/22 08:33:39;;;;;;;27.77;21.00;;;13.70;58.60;;;;;;4959186;28;20023;-73
2021/04/22 08:36:06;;;;;;;30.60;22.25;;;13.80;57.00;;;;;;4958952;28;20507;-73
2021/04/22 08:38:33;;;;;;;32.80;22.95;;;13.90;56.90;;;;;;4959555;28;20034;-73
2021/04/22 08:40:59;;;;;;;35.05;24.50;;;13.90;56.60;;;;;;4958820;28;20175;-73
2021/04/22 08:43:25;;;;;;;32.28;21.20;;;14.00;56.20;;;;;;4976798;28;20168;-73
2021/04/22 08:45:51;;;;;;;33.17;23.20;;;14.00;57.00;;;;;;4976290;28;20109;-73
2021/04/22 08:48:18;;;;;;;26.02;18.33;;;14.10;56.50;;;;;;4942868;28;20031;-73
2021/04/22 08:50:47;;;;;;;29.60;21.85;;;14.30;56.10;;;;;;4942958;28;20050;-73
2021/04/22 08:53:23;;;;;;;28.13;20.30;;;14.50;55.40;;;;;;4958678;28;20134;-73
2021/04/22 08:55:50;;;;;;;33.67;24.15;;;14.60;54.60;;;;;;4975818;28;20050;-75
2021/04/22 08:58:15;;;;;;;34.80;23.23;;;14.30;54.10;;;;;;4975973;28;20476;-74
2021/04/22 09:00:47;;;;;;;32.15;22.40;;;13.80;55.00;;;;;;4958669;28;20035;-73
2021/04/22 09:03:13;;;;;;;30.35;21.13;;;13.70;56.70;;;;;;4976183;28;20035;-74
2021/04/22 09:05:40;;;;;;;28.90;21.77;;;13.70;57.50;;;;;;4975946;28;20030;-74
2021/04/22 09:08:07;;;;;;;30.55;20.35;;;13.90;57.10;;;;;;4975875;28;20034;-74
2021/04/22 09:10:32;;;;;;;28.27;21.98;;;14.10;56.70;;;;;;4976387;28;20079;-72
2021/04/22 09:13:07;;;;;;;30.35;20.80;;;14.30;55.70;;;;;;4958724;28;20134;-73
2021/04/22 09:15:35;;;;;;;24.85;18.90;;;14.40;55.10;;;;;;4958817;28;20027;-73
2021/04/22 09:18:05;;;;;;;31.63;21.67;;;14.40;55.10;;;;;;4958311;28;20567;-73
2021/04/22 09:20:35;;;;;;;34.63;22.88;;;14.30;55.60;;;;;;4975721;28;20514;-74
2021/04/22 09:23:11;;;;;;;29.27;19.92;;;14.30;54.40;;;;;;4958460;28;20062;-73
2021/04/22 09:25:37;;;;;;;26.70;19.90;;;14.10;54.70;;;;;;4958200;28;20166;-73
2021/04/22 09:28:08;;;;;;;29.10;19.98;;;13.90;55.70;;;;;;4975635;28;20093;-73
2021/04/22 09:30:41;;;;;;;31.42;21.08;;;13.90;56.10;;;;;;4958288;28;20070;-73
2021/04/22 09:33:18;;;;;;;34.50;22.35;;;13.70;56.30;;;;;;4957972;28;20488;-76
2021/04/22 09:35:44;;;;;;;34.20;24.08;;;13.60;56.70;;;;;;4975678;28;20564;-76
2021/04/22 09:38:14;;;;;;;33.78;24.73;;;13.20;57.20;;;;;;4957851;28;20114;-76
2021/04/22 09:40:41;;;;;;;28.95;22.88;;;12.90;58.40;;;;;;4975351;28;20090;-76
2021/04/22 09:43:13;;;;;;;29.20;22.10;;;12.80;59.30;;;;;;4958009;28;20027;-74
2021/04/22 09:45:42;;;;;;;29.92;21.52;;;12.80;59.70;;;;;;4975184;28;20035;-75
2021/04/22 09:48:20;;;;;;;39.55;25.40;;;12.70;60.00;;;;;;4957313;28;20046;-75
2021/04/22 09:50:46;;;;;;;39.25;26.30;;;12.50;60.80;;;;;;4957654;28;20031;-77
2021/04/22 09:53:17;;;;;;;33.92;23.15;;;12.60;61.10;;;;;;4957534;28;20443;-76
2021/04/22 09:55:45;;;;;;;34.50;25.73;;;12.70;60.80;;;;;;4954180;29;20428;-76
2021/04/22 09:58:11;;;;;;;36.33;25.27;;;12.90;59.90;;;;;;4954364;29;20023;-77
2021/04/22 10:00:37;;;;;;;30.13;22.90;;;12.90;59.10;;;;;;4953897;29;20031;-77
2021/04/22 10:03:11;;;;;;;34.45;23.70;;;12.70;59.70;;;;;;4955574;29;20023;-73
2021/04/22 10:05:39;;;;;;;32.72;24.20;;;12.80;60.00;;;;;;4953789;29;20019;-78
2021/04/22 10:08:16;;;;;;;33.92;24.52;;;13.00;59.60;;;;;;4955961;28;20070;-76
2021/04/22 10:11:02;;;;;;;38.00;26.92;;;13.10;59.80;;;;;;4954402;29;20118;-74
2021/04/22 10:13:40;;;;;;;33.60;23.42;;;13.00;59.40;;;;;;4957249;29;20035;-75
2021/04/22 10:16:06;;;;;;;32.33;24.00;;;12.90;59.70;;;;;;4955619;28;20035;-75
2021/04/22 10:18:42;;;;;;;33.60;22.70;;;12.90;60.00;;;;;;4958601;29;20547;-77
2021/04/22 10:21:08;;;;;;;33.13;23.00;;;13.10;60.00;;;;;;4956473;29;20555;-78
2021/04/22 10:23:34;;;;;;;36.30;24.73;;;13.30;59.40;;;;;;4954100;29;20066;-79
2021/04/22 10:26:00;;;;;;;38.95;25.95;;;13.40;58.40;;;;;;4955406;28;20547;-79
2021/04/22 10:28:26;;;;;;;37.15;25.92;;;13.50;57.90;;;;;;4954285;29;20043;-78
2021/04/22 10:30:56;;;;;;;34.65;25.10;;;13.30;57.90;;;;;;4954296;29;20086;-76
2021/04/22 10:33:23;;;;;;;33.13;24.40;;;13.20;58.90;;;;;;4954001;29;20027;-79
2021/04/22 10:35:49;;;;;;;36.13;25.35;;;13.40;58.90;;;;;;4954083;29;20023;-78
2021/04/22 10:38:16;;;;;;;31.42;23.67;;;13.80;58.40;;;;;;4953817;29;20429;-76
2021/04/22 10:40:48;;;;;;;36.30;24.15;;;14.00;57.10;;;;;;4956799;28;20058;-78
2021/04/22 10:43:25;;;;;;;32.50;23.08;;;14.20;56.40;;;;;;4955077;29;20078;-79
2021/04/22 10:45:53;;;;;;;34.70;24.63;;;14.40;55.70;;;;;;4955410;29;20023;-78
2021/04/22 10:48:19;;;;;;;34.00;24.58;;;14.60;54.90;;;;;;4954982;29;20050;-77
2021/04/22 10:50:49;;;;;;;32.65;24.42;;;14.80;53.90;;;;;;4956037;28;20034;-78
2021/04/22 10:53:19;;;;;;;37.40;27.58;;;15.10;53.10;;;;;;4956145;28;20073;-78
2021/04/22 10:55:47;;;;;;;35.35;27.45;;;15.10;52.00;;;;;;4954563;29;20097;-78
2021/04/22 10:58:15;;;;;;;36.10;26.70;;;14.90;52.50;;;;;;4955707;28;20046;-78
2021/04/22 11:00:59;;;;;;;37.92;28.25;;;14.90;52.30;;;;;;4953202;28;20034;-77
2021/04/22 11:03:29;;;;;;;29.55;22.88;;;14.80;52.20;;;;;;4954020;29;20041;-79
2021/04/22 11:06:00;;;;;;;38.70;24.75;;;14.90;52.40;;;;;;4955441;29;20073;-76
2021/04/22 11:08:30;;;;;;;29.02;22.63;;;15.20;51.40;;;;;;4955949;28;20472;-77
2021/04/22 11:10:56;;;;;;;29.65;22.05;;;15.60;50.60;;;;;;4953301;29;20432;-77
2021/04/22 11:13:31;;;;;;;37.10;23.27;;;16.00;49.70;;;;;;4937151;29;20515;-77
2021/04/22 11:15:58;;;;;;;33.47;22.48;;;16.30;48.90;;;;;;4953218;29;20170;-77
2021/04/22 11:18:41;;;;;;;31.27;22.10;;;16.60;48.50;;;;;;4954016;29;20473;-78
2021/04/22 11:21:19;;;;;;;31.67;22.13;;;17.20;47.90;;;;;;4954387;29;20043;-77
2021/04/22 11:23:47;;;;;;;33.22;26.30;;;17.40;45.90;;;;;;4953392;29;20031;-78
2021/04/22 11:26:25;;;;;;;30.92;22.85;;;16.60;45.10;;;;;;4952808;29;20118;-77
2021/04/22 11:28:51;;;;;;;38.55;25.80;;;16.30;47.30;;;;;;4954513;28;20488;-80
2021/04/22 11:31:24;;;;;;;34.63;25.33;;;16.20;47.50;;;;;;4952888;29;20035;-79
2021/04/22 11:33:50;;;;;;;35.28;26.05;;;16.50;47.40;;;;;;4953658;29;20072;-78
2021/04/22 11:36:24;;;;;;;38.13;27.58;;;16.50;46.40;;;;;;4953073;29;20028;-79
2021/04/22 11:39:00;;;;;;;34.72;26.80;;;16.00;47.30;;;;;;4953328;29;20036;-77
2021/04/22 11:41:30;;;;;;;32.78;23.80;;;16.10;48.10;;;;;;4955226;28;20036;-80
2021/04/22 11:44:14;;;;;;;32.38;24.48;;;16.40;48.80;;;;;;4953366;29;20432;-79
2021/04/22 11:46:46;;;;;;;38.88;29.15;;;16.90;46.70;;;;;;4953243;29;20059;-79
2021/04/22 11:49:30;;;;;;;40.05;29.05;;;16.80;44.90;;;;;;4954469;28;20039;-79
2021/04/22 11:51:58;;;;;;;39.25;28.98;;;16.60;45.60;;;;;;4955171;28;20028;-79
2021/04/22 11:54:34;;;;;;;35.72;26.63;;;16.80;45.60;;;;;;4953183;29;20516;-78
2021/04/22 11:57:03;;;;;;;37.00;26.25;;;16.90;45.60;;;;;;4952470;29;20416;-76
2021/04/22 11:59:29;;;;;;;39.13;28.42;;;17.30;44.50;;;;;;4948346;29;20032;-73
2021/04/22 12:02:04;;;;;;;37.65;28.27;;;17.00;44.10;;;;;;4943821;29;20035;-75
2021/04/22 12:04:39;;;;;;;37.28;24.92;;;17.40;44.20;;;;;;4939165;29;20023;-76
2021/04/22 12:07:07;;;;;;;37.90;28.20;;;18.10;43.80;;;;;;4952911;29;20510;-76
2021/04/22 12:09:33;;;;;;;33.35;25.65;;;18.30;41.70;;;;;;4923093;29;20410;-75
2021/04/22 12:12:27;;;;;;;36.30;27.83;;;18.00;41.10;;;;;;4916956;29;20035;-79
2021/04/22 12:14:55;;;;;;;34.38;24.08;;;18.50;40.70;;;;;;4915444;29;20117;-80
2021/04/22 12:17:34;;;;;;;28.83;21.55;;;18.70;40.30;;;;;;4919427;29;20024;-78
2021/04/22 12:20:04;;;;;;;29.60;22.25;;;19.10;39.30;;;;;;4918370;29;20059;-84
2021/04/22 12:22:34;;;;;;;31.35;24.25;;;19.40;38.60;;;;;;4918290;29;20117;-75
2021/04/22 12:25:02;;;;;;;30.00;23.98;;;19.90;38.00;;;;;;4918251;29;20388;-75
2021/04/22 12:27:37;;;;;;;34.38;24.60;;;20.10;37.00;;;;;;4917871;29;20115;-78
2021/04/22 12:30:31;;;;;;;34.40;24.83;;;19.70;36.40;;;;;;4917919;29;20028;-75
2021/04/22 12:33:00;;;;;;;34.20;25.25;;;19.70;36.40;;;;;;4917918;29;20038;-75
2021/04/22 12:35:29;;;;;;;31.90;24.95;;;19.80;36.10;;;;;;4919232;29;20469;-77
2021/04/22 12:37:56;;;;;;;38.05;25.48;;;20.00;35.60;;;;;;4917947;29;20123;-74
2021/04/22 12:40:23;;;;;;;33.53;25.38;;;19.40;36.70;;;;;;4918967;29;20056;-77